Time;durP1;ratioP1;P1;durP2;ratioP2;P2;SDS_P1;SDS_P2;PMS_P1;PMS_P2;Temp;Humidity;BMP_temperature;BMP_pressure;BME280_temperature;BME280_humidity;BME280_pressure;Samples;Min_cycle;Max_cycle;Signal;HPM_P1;HPM_P2
2022/03/13 00:00:52;;;;;;;8.50;5.68;;;17.60;38.40;16.70;101300.00;;;;5053425;28;20461;-64
2022/03/13 00:03:38;;;;;;;7.00;5.63;;;17.60;38.40;16.70;101299.00;;;;5060374;28;20044;-64
2022/03/13 00:06:32;;;;;;;6.15;4.93;;;17.60;38.30;16.70;101297.00;;;;5065127;28;20474;-64
2022/03/13 00:09:21;;;;;;;6.95;5.30;;;17.60;38.40;16.70;101297.00;;;;5029953;28;20255;-64
2022/03/13 00:12:08;;;;;;;7.53;5.60;;;17.60;38.40;16.70;101293.00;;;;5055234;28;20071;-64
2022/03/13 00:14:56;;;;;;;6.47;5.35;;;17.60;38.30;16.70;101290.00;;;;5062842;28;20044;-64
2022/03/13 00:17:42;;;;;;;8.00;5.47;;;17.60;38.30;16.70;101293.00;;;;5051323;28;20395;-64
2022/03/13 00:20:32;;;;;;;7.03;5.45;;;17.60;38.30;16.70;101290.00;;;;5060258;28;20179;-64
2022/03/13 00:23:19;;;;;;;11.30;5.50;;;17.60;38.30;16.70;101284.00;;;;5058427;28;20036;-64
2022/03/13 00:26:06;;;;;;;7.97;5.30;;;17.60;38.30;16.70;101285.00;;;;5066195;28;20433;-64
2022/03/13 00:28:53;;;;;;;6.20;5.10;;;17.60;39.00;16.70;101289.00;;;;5062430;28;20040;-64
2022/03/13 00:31:39;;;;;;;7.20;5.20;;;17.60;38.30;16.70;101297.00;;;;5061001;28;20186;-64
2022/03/13 00:34:25;;;;;;;7.57;5.60;;;17.60;38.20;16.70;101298.00;;;;5057821;28;20312;-64
2022/03/13 00:37:11;;;;;;;7.53;5.57;;;17.60;38.20;16.70;101292.00;;;;5052694;28;20078;-64
2022/03/13 00:39:57;;;;;;;7.65;5.60;;;17.50;38.20;16.70;101294.00;;;;5073276;28;20047;-64
2022/03/13 00:42:44;;;;;;;7.72;5.28;;;17.60;38.20;16.70;101294.00;;;;5069229;28;20037;-64
2022/03/13 00:45:30;;;;;;;7.32;5.55;;;17.60;38.20;16.70;101298.00;;;;5077766;28;20128;-64
2022/03/13 00:48:16;;;;;;;6.93;5.38;;;17.60;38.20;16.70;101294.00;;;;5061924;28;20044;-64
2022/03/13 00:51:03;;;;;;;6.72;5.00;;;17.50;38.30;16.70;101284.00;;;;5051414;28;20044;-64
2022/03/13 00:53:49;;;;;;;7.07;5.90;;;17.60;38.20;16.70;101283.00;;;;5059509;28;20044;-65
2022/03/13 00:56:35;;;;;;;7.28;5.75;;;17.50;38.20;16.70;101284.00;;;;5063949;28;20064;-64
2022/03/13 00:59:21;;;;;;;8.25;5.80;;;17.50;38.20;16.70;101291.00;;;;5060096;28;20049;-64
2022/03/13 01:02:08;;;;;;;7.07;5.13;;;17.50;38.20;16.70;101289.00;;;;5057931;28;20059;-65
2022/03/13 01:04:55;;;;;;;7.05;5.45;;;17.50;38.20;16.70;101288.00;;;;5055964;28;20045;-64
2022/03/13 01:07:41;;;;;;;8.07;5.70;;;17.50;38.10;16.70;101298.00;;;;5063513;28;20040;-64
2022/03/13 01:10:27;;;;;;;7.82;5.13;;;17.50;38.10;16.70;101294.00;;;;5059188;28;20040;-65
2022/03/13 01:13:13;;;;;;;6.28;5.43;;;17.50;38.10;16.70;101292.00;;;;5064819;28;20123;-64
2022/03/13 01:16:12;;;;;;;7.07;5.45;;;17.50;38.20;16.70;101287.00;;;;5063529;28;20048;-64
2022/03/13 01:18:59;;;;;;;7.82;4.93;;;17.50;38.10;16.70;101293.00;;;;5056052;28;20051;-64
2022/03/13 01:21:45;;;;;;;7.10;5.28;;;17.50;38.10;16.70;101290.00;;;;5047176;28;20048;-64
2022/03/13 01:24:41;;;;;;;7.18;5.32;;;17.50;38.10;16.70;101290.00;;;;5055138;28;20040;-64
2022/03/13 01:27:27;;;;;;;6.47;5.28;;;17.50;38.10;16.70;101287.00;;;;5049139;28;20083;-64
2022/03/13 01:30:16;;;;;;;6.28;5.07;;;17.50;38.10;16.70;101281.00;;;;5054603;28;20520;-64
2022/03/13 01:33:03;;;;;;;6.78;5.13;;;17.50;38.00;16.60;101278.00;;;;5045243;28;20032;-64
2022/03/13 01:35:49;;;;;;;7.18;5.40;;;17.50;38.00;16.60;101279.00;;;;5050102;28;20044;-64
2022/03/13 01:38:35;;;;;;;5.50;4.72;;;17.50;38.70;16.60;101271.00;;;;5058628;28;20119;-64
2022/03/13 01:41:22;;;;;;;8.27;5.75;;;17.50;38.10;16.60;101270.00;;;;5062421;28;20497;-64
2022/03/13 01:44:08;;;;;;;8.02;5.68;;;17.50;38.00;16.60;101272.00;;;;5076207;28;20429;-64
2022/03/13 01:46:55;;;;;;;8.40;5.53;;;17.50;38.00;16.60;101271.00;;;;5047473;28;20048;-64
2022/03/13 01:49:41;;;;;;;8.98;5.90;;;17.50;38.00;16.60;101267.00;;;;5076199;28;20036;-64
2022/03/13 01:52:48;;;;;;;6.78;5.50;;;17.40;37.90;16.60;101265.00;;;;5077621;28;20039;-64
2022/03/13 01:55:34;;;;;;;7.97;5.55;;;17.40;37.90;16.60;101259.00;;;;5058913;28;20044;-65
2022/03/13 01:58:20;;;;;;;6.15;5.13;;;17.40;37.90;16.60;101265.00;;;;5079736;28;20123;-64
2022/03/13 02:01:08;;;;;;;7.95;5.22;;;17.40;37.90;16.60;101252.00;;;;5056635;28;20204;-64
2022/03/13 02:03:54;;;;;;;7.10;4.95;;;17.40;37.90;16.60;101246.00;;;;5055696;28;20127;-64
2022/03/13 02:06:40;;;;;;;7.10;5.32;;;17.40;37.90;16.60;101244.00;;;;5046841;28;20037;-64
2022/03/13 02:09:27;;;;;;;7.35;5.05;;;17.40;37.90;16.60;101243.00;;;;5056095;28;20045;-64
2022/03/13 02:12:13;;;;;;;6.28;5.05;;;17.40;37.90;16.60;101232.00;;;;5043800;28;20080;-64
2022/03/13 02:14:59;;;;;;;7.50;5.38;;;17.40;37.90;16.60;101241.00;;;;5058735;28;20037;-64
2022/03/13 02:17:45;;;;;;;6.88;5.40;;;17.40;37.90;16.60;101247.00;;;;5043981;28;20490;-64
2022/03/13 02:20:42;;;;;;;7.25;5.15;;;17.40;37.90;16.60;101240.00;;;;5057394;28;20037;-64
2022/03/13 02:23:29;;;;;;;6.63;4.97;;;17.40;37.90;16.60;101243.00;;;;5067297;28;20075;-64
2022/03/13 02:26:15;;;;;;;7.50;5.57;;;17.40;37.90;16.50;101235.00;;;;5058629;28;20048;-64
2022/03/13 02:29:01;;;;;;;6.95;5.07;;;17.40;37.90;16.50;101249.00;;;;5053552;28;20049;-64
2022/03/13 02:31:48;;;;;;;6.55;5.28;;;17.40;37.90;16.50;101250.00;;;;5060801;28;20052;-64
2022/03/13 02:34:34;;;;;;;8.57;5.68;;;17.40;37.90;16.50;101249.00;;;;5054075;28;20414;-64
2022/03/13 02:37:35;;;;;;;7.82;5.20;;;17.40;37.80;16.50;101237.00;;;;5043720;28;20048;-64
2022/03/13 02:40:25;;;;;;;7.20;5.38;;;17.30;37.80;16.50;101236.00;;;;5046137;28;20048;-64
2022/03/13 02:43:11;;;;;;;7.32;5.18;;;17.30;37.80;16.50;101231.00;;;;5042252;28;20399;-64
2022/03/13 02:45:58;;;;;;;6.53;5.10;;;17.40;37.80;16.50;101232.00;;;;5041764;28;20102;-64
2022/03/13 02:48:44;;;;;;;7.15;5.18;;;17.30;37.80;16.50;101235.00;;;;5045552;28;20083;-64
2022/03/13 02:51:30;;;;;;;5.63;4.85;;;17.30;37.70;16.50;101233.00;;;;5066355;28;20038;-64
2022/03/13 02:54:16;;;;;;;7.68;5.22;;;17.30;37.80;16.50;101232.00;;;;5053648;28;20045;-64
2022/03/13 02:57:02;;;;;;;6.43;5.22;;;17.30;37.80;16.50;101228.00;;;;5029089;28;20036;-64
2022/03/13 02:59:48;;;;;;;8.07;5.30;;;17.30;37.80;16.50;101227.00;;;;5057516;28;20083;-64
2022/03/13 03:02:35;;;;;;;7.88;5.53;;;17.30;37.70;16.50;101222.00;;;;5057156;28;20102;-64
2022/03/13 03:05:21;;;;;;;8.00;4.82;;;17.30;37.70;16.50;101216.00;;;;5056665;28;20123;-64
2022/03/13 03:08:08;;;;;;;7.30;5.45;;;17.30;37.70;16.50;101215.00;;;;5056399;28;20092;-64
2022/03/13 03:10:54;;;;;;;5.70;4.68;;;17.30;37.70;16.50;101218.00;;;;5057603;28;20045;-64
2022/03/13 03:13:40;;;;;;;5.43;4.85;;;17.30;37.70;16.40;101214.00;;;;5056065;28;20044;-64
2022/03/13 03:16:26;;;;;;;6.10;5.05;;;17.30;37.70;16.40;101211.00;;;;5065416;28;20040;-64
2022/03/13 03:19:12;;;;;;;8.73;5.03;;;17.30;37.70;16.40;101214.00;;;;5055961;28;20052;-64
2022/03/13 03:21:58;;;;;;;6.28;4.65;;;17.30;37.70;16.40;101207.00;;;;5044889;28;20051;-65
2022/03/13 03:24:44;;;;;;;6.35;4.30;;;17.30;37.70;16.40;101211.00;;;;5044047;28;20039;-64
2022/03/13 03:27:30;;;;;;;7.53;5.45;;;17.20;37.70;16.40;101206.00;;;;5043153;28;20490;-64
2022/03/13 03:30:24;;;;;;;7.38;5.05;;;17.20;37.70;16.40;101214.00;;;;5063604;28;20037;-64
2022/03/13 03:33:10;;;;;;;7.03;5.13;;;17.20;37.80;16.40;101210.00;;;;5028913;28;20033;-64
2022/03/13 03:35:56;;;;;;;6.07;5.05;;;17.20;38.50;16.40;101214.00;;;;5055058;28;20478;-64
2022/03/13 03:38:42;;;;;;;6.78;4.90;;;17.20;37.80;16.40;101215.00;;;;5065033;28;20043;-64
2022/03/13 03:41:28;;;;;;;5.53;4.60;;;17.20;37.70;16.40;101204.00;;;;5054838;28;20056;-64
2022/03/13 03:44:14;;;;;;;6.53;4.90;;;17.20;37.80;16.40;101202.00;;;;5055388;28;20471;-64
2022/03/13 03:47:00;;;;;;;5.68;4.55;;;17.20;37.70;16.40;101208.00;;;;5064047;28;20448;-65
2022/03/13 03:49:46;;;;;;;7.07;4.90;;;17.20;37.70;16.40;101194.00;;;;5052544;28;20120;-64
2022/03/13 03:52:32;;;;;;;5.88;4.93;;;17.20;37.70;16.40;101199.00;;;;5058309;28;20538;-64
2022/03/13 03:55:18;;;;;;;5.95;4.55;;;17.20;37.70;16.40;101196.00;;;;5057902;28;20052;-64
2022/03/13 03:58:04;;;;;;;8.48;5.28;;;17.20;37.70;16.40;101194.00;;;;5056275;28;20045;-65
2022/03/13 04:00:50;;;;;;;5.70;5.03;;;17.20;37.70;16.40;101201.00;;;;5059824;28;20157;-64
2022/03/13 04:03:36;;;;;;;6.85;5.53;;;17.20;37.70;16.40;101193.00;;;;5053829;28;20525;-64
2022/03/13 04:06:22;;;;;;;6.15;4.70;;;17.10;37.60;16.40;101185.00;;;;5062836;28;20049;-64
2022/03/13 04:09:09;;;;;;;5.75;4.85;;;17.10;37.60;16.40;101174.00;;;;5053484;28;20048;-64
2022/03/13 04:11:56;;;;;;;5.70;4.85;;;17.10;37.60;16.40;101169.00;;;;5045953;28;20421;-64
2022/03/13 04:14:42;;;;;;;6.55;4.95;;;17.10;37.50;16.40;101173.00;;;;5068337;28;20055;-64
2022/03/13 04:17:29;;;;;;;5.97;4.65;;;17.10;37.50;16.30;101176.00;;;;5062895;28;20044;-64
2022/03/13 04:20:15;;;;;;;6.93;4.63;;;17.10;37.50;16.30;101176.00;;;;5070623;28;20041;-64
2022/03/13 04:23:01;;;;;;;6.15;4.82;;;17.20;37.50;16.40;101177.00;;;;5060263;28;20048;-64
2022/03/13 04:25:47;;;;;;;6.68;4.90;;;17.10;37.50;16.40;101172.00;;;;5061449;28;20127;-64
2022/03/13 04:28:33;;;;;;;5.97;4.70;;;17.20;37.50;16.30;101165.00;;;;5060725;28;20398;-64
2022/03/13 04:31:19;;;;;;;5.50;4.45;;;17.10;37.40;16.30;101164.00;;;;5068478;28;20440;-64
2022/03/13 04:34:05;;;;;;;6.15;4.80;;;17.10;37.40;16.30;101164.00;;;;5044076;28;20063;-64
2022/03/13 04:36:51;;;;;;;6.38;4.88;;;17.10;37.40;16.30;101161.00;;;;5044505;28;20033;-64
2022/03/13 04:39:38;;;;;;;7.40;5.05;;;17.10;37.40;16.30;101159.00;;;;5046200;28;20040;-64
2022/03/13 04:42:24;;;;;;;7.45;5.55;;;17.10;37.40;16.30;101164.00;;;;5060165;28;20054;-64
2022/03/13 04:45:12;;;;;;;6.15;4.93;;;17.10;37.40;16.30;101164.00;;;;5043322;28;20060;-64
2022/03/13 04:47:58;;;;;;;6.93;4.90;;;17.10;37.40;16.30;101168.00;;;;5045601;28;20127;-64
2022/03/13 04:50:45;;;;;;;6.30;4.90;;;17.10;37.40;16.30;101165.00;;;;5063179;28;20485;-64
2022/03/13 04:53:31;;;;;;;6.32;5.15;;;17.10;37.30;16.30;101162.00;;;;5047467;28;20127;-64
2022/03/13 04:56:17;;;;;;;7.63;5.03;;;17.20;37.40;16.30;101169.00;;;;5078473;28;20044;-64
2022/03/13 04:59:05;;;;;;;7.03;5.53;;;17.10;37.30;16.30;101167.00;;;;5073734;28;20071;-64
2022/03/13 05:01:52;;;;;;;6.47;4.80;;;17.20;37.30;16.30;101159.00;;;;5080952;28;20485;-64
2022/03/13 05:04:38;;;;;;;5.85;4.68;;;17.10;37.30;16.30;101164.00;;;;5074339;28;20051;-64
2022/03/13 05:07:25;;;;;;;8.35;4.97;;;17.10;37.20;16.30;101164.00;;;;5078396;28;20462;-64
2022/03/13 05:10:11;;;;;;;6.23;5.00;;;17.10;37.20;16.30;101165.00;;;;5077099;28;20044;-64
2022/03/13 05:12:57;;;;;;;5.78;4.38;;;17.10;37.20;16.30;101177.00;;;;5075345;28;20043;-64
2022/03/13 05:15:45;;;;;;;9.35;5.18;;;17.10;37.20;16.30;101179.00;;;;5081412;28;20028;-64
2022/03/13 05:18:32;;;;;;;7.63;4.65;;;17.10;37.20;16.30;101183.00;;;;5062945;28;20279;-64
2022/03/13 05:21:18;;;;;;;6.80;5.18;;;17.10;37.10;16.30;101181.00;;;;5067529;28;20035;-65
2022/03/13 05:24:04;;;;;;;5.95;4.65;;;17.10;37.20;16.30;101188.00;;;;5076120;28;20482;-64
2022/03/13 05:26:50;;;;;;;6.72;4.97;;;17.10;37.10;16.30;101182.00;;;;5077531;28;20090;-64
2022/03/13 05:29:37;;;;;;;7.10;5.30;;;17.10;37.10;16.20;101184.00;;;;5066099;28;20409;-65
2022/03/13 05:32:23;;;;;;;5.88;4.72;;;17.00;37.10;16.20;101186.00;;;;5063321;28;20077;-64
2022/03/13 05:35:10;;;;;;;6.85;4.82;;;17.10;37.10;16.20;101186.00;;;;5073508;28;20063;-64
2022/03/13 05:37:56;;;;;;;5.95;4.93;;;17.10;37.10;16.20;101187.00;;;;5075896;28;20083;-64
2022/03/13 05:40:42;;;;;;;6.72;4.40;;;17.10;37.10;16.20;101185.00;;;;5053547;28;20036;-64
2022/03/13 05:43:31;;;;;;;7.47;5.15;;;17.00;37.00;16.20;101192.00;;;;5060036;28;20081;-64
2022/03/13 05:46:17;;;;;;;6.53;5.22;;;17.10;37.00;16.20;101193.00;;;;5055935;28;20049;-64
2022/03/13 05:49:03;;;;;;;6.68;5.10;;;17.10;37.00;16.20;101198.00;;;;5056619;28;20526;-64
2022/03/13 05:51:49;;;;;;;5.43;4.38;;;17.00;37.00;16.20;101202.00;;;;5061397;28;20036;-64
2022/03/13 05:54:35;;;;;;;8.00;5.03;;;17.00;37.00;16.20;101205.00;;;;5055467;28;20048;-64
2022/03/13 05:57:21;;;;;;;6.57;5.03;;;17.00;37.00;16.20;101203.00;;;;5041734;28;20049;-64
2022/03/13 06:00:10;;;;;;;8.27;4.97;;;17.00;37.00;16.20;101203.00;;;;5053478;28;20041;-64
2022/03/13 06:02:57;;;;;;;8.30;5.05;;;17.00;36.90;16.20;101213.00;;;;5044119;28;20114;-64
2022/03/13 06:05:43;;;;;;;7.80;4.87;;;17.00;36.90;16.20;101208.00;;;;5060399;28;20040;-64
2022/03/13 06:08:30;;;;;;;6.43;4.70;;;17.00;36.90;16.20;101216.00;;;;5055649;28;20401;-64
2022/03/13 06:11:16;;;;;;;7.50;4.70;;;17.00;36.90;16.20;101219.00;;;;5049594;28;20573;-64
2022/03/13 06:14:03;;;;;;;7.07;4.68;;;17.00;36.90;16.20;101224.00;;;;5057543;28;20044;-64
2022/03/13 06:16:49;;;;;;;7.35;5.22;;;17.00;36.90;16.20;101220.00;;;;5058683;28;20041;-64
2022/03/13 06:19:39;;;;;;;7.57;4.75;;;17.00;36.90;16.20;101216.00;;;;5058192;28;20048;-64
2022/03/13 06:22:25;;;;;;;7.93;5.13;;;16.90;36.80;16.20;101213.00;;;;5054950;28;20095;-64
2022/03/13 06:25:12;;;;;;;6.38;5.28;;;17.00;36.90;16.20;101213.00;;;;5052930;28;20032;-64
2022/03/13 06:27:58;;;;;;;6.55;5.22;;;17.00;36.90;16.20;101211.00;;;;5047558;28;20064;-64
2022/03/13 06:30:44;;;;;;;7.85;5.22;;;17.00;36.90;16.20;101218.00;;;;5058607;28;20043;-64
2022/03/13 06:33:30;;;;;;;6.50;4.88;;;17.00;36.90;16.20;101219.00;;;;5054760;28;20055;-64
2022/03/13 06:36:16;;;;;;;8.43;5.45;;;16.90;36.80;16.20;101221.00;;;;5060658;28;20037;-64
2022/03/13 06:39:02;;;;;;;6.63;5.18;;;17.00;36.90;16.10;101223.00;;;;5047242;28;20464;-64
2022/03/13 06:41:51;;;;;;;6.57;4.95;;;17.00;36.80;16.20;101222.00;;;;5041967;28;20098;-64
2022/03/13 06:44:37;;;;;;;5.88;4.72;;;17.00;36.80;16.10;101221.00;;;;5047378;28;20386;-64
2022/03/13 06:47:23;;;;;;;8.57;5.22;;;16.90;36.70;16.10;101223.00;;;;5055644;28;20685;-64
2022/03/13 06:50:09;;;;;;;6.20;5.10;;;17.00;36.80;16.10;101210.00;;;;5058909;28;20099;-64
2022/03/13 06:52:56;;;;;;;6.20;4.85;;;17.00;36.80;16.10;101213.00;;;;5052501;28;20045;-64
2022/03/13 06:55:42;;;;;;;5.60;4.78;;;17.00;36.80;16.20;101210.00;;;;5039837;28;20040;-64
2022/03/13 06:58:28;;;;;;;6.38;5.03;;;17.00;36.80;16.20;101204.00;;;;5043870;28;20044;-64
2022/03/13 07:01:14;;;;;;;6.55;4.55;;;17.00;36.80;16.20;101202.00;;;;5064140;28;20056;-64
2022/03/13 07:04:00;;;;;;;6.32;4.75;;;17.00;36.80;16.20;101204.00;;;;5060646;28;20040;-64
2022/03/13 07:06:47;;;;;;;6.53;5.10;;;17.10;36.80;16.20;101201.00;;;;5038419;28;20063;-64
2022/03/13 07:09:33;;;;;;;6.88;4.80;;;17.00;36.80;16.20;101195.00;;;;5062293;28;20117;-64
2022/03/13 07:12:20;;;;;;;7.32;4.53;;;17.00;36.70;16.20;101196.00;;;;5057399;28;20482;-64
2022/03/13 07:15:10;;;;;;;7.68;4.88;;;17.00;36.70;16.20;101194.00;;;;5062877;28;20044;-64
2022/03/13 07:17:56;;;;;;;8.77;5.00;;;17.00;36.70;16.20;101193.00;;;;5050067;28;20083;-64
2022/03/13 07:20:42;;;;;;;7.32;4.90;;;17.00;36.70;16.20;101189.00;;;;5057263;28;20041;-64
2022/03/13 07:23:29;;;;;;;5.22;4.43;;;16.90;36.60;16.20;101191.00;;;;5044498;28;20032;-64
2022/03/13 07:26:15;;;;;;;7.18;4.75;;;16.90;36.60;16.20;101191.00;;;;5041474;28;20047;-64
2022/03/13 07:29:01;;;;;;;6.22;4.80;;;17.00;36.60;16.20;101189.00;;;;5053606;28;20072;-64
2022/03/13 07:31:47;;;;;;;6.35;4.68;;;17.10;36.70;16.20;101199.00;;;;5062697;28;20056;-64
2022/03/13 07:34:33;;;;;;;5.43;4.30;;;17.00;36.60;16.20;101200.00;;;;5053586;28;20102;-64
2022/03/13 07:37:19;;;;;;;5.35;4.35;;;17.10;36.60;16.20;101198.00;;;;5058924;28;20037;-64
2022/03/13 07:40:06;;;;;;;6.15;4.55;;;17.10;36.60;16.20;101193.00;;;;5062294;28;20037;-64
2022/03/13 07:42:52;;;;;;;6.13;5.15;;;17.10;36.60;16.20;101186.00;;;;5059062;28;20436;-64
2022/03/13 07:45:39;;;;;;;7.93;5.20;;;17.10;36.60;16.20;101195.00;;;;5056167;28;20102;-63
2022/03/13 07:48:25;;;;;;;7.30;4.93;;;17.00;36.50;16.20;101194.00;;;;5053577;28;20138;-64
2022/03/13 07:51:12;;;;;;;14.40;5.43;;;17.10;36.40;16.20;101191.00;;;;5054279;28;20123;-64
2022/03/13 07:53:58;;;;;;;7.33;4.80;;;17.10;36.30;16.20;101182.00;;;;5063235;28;20041;-64
2022/03/13 07:56:44;;;;;;;8.25;4.90;;;17.10;36.20;16.20;101181.00;;;;5054719;28;20370;-64
2022/03/13 07:59:30;;;;;;;9.73;5.05;;;17.10;36.10;16.20;101181.00;;;;5066772;28;20044;-64
2022/03/13 08:02:16;;;;;;;7.95;4.80;;;17.00;36.00;16.20;101182.00;;;;5062049;28;20044;-64
2022/03/13 08:05:03;;;;;;;10.02;5.45;;;17.10;36.10;16.20;101181.00;;;;5047659;28;20049;-64
2022/03/13 08:07:50;;;;;;;7.55;5.47;;;17.10;36.00;16.20;101184.00;;;;5044456;28;20044;-64
2022/03/13 08:10:36;;;;;;;7.10;4.65;;;17.10;36.00;16.20;101186.00;;;;5043319;28;20404;-64
2022/03/13 08:13:22;;;;;;;7.00;5.47;;;17.20;36.10;16.20;101187.00;;;;5072560;28;20418;-64
2022/03/13 08:16:09;;;;;;;6.70;4.65;;;17.10;36.10;16.30;101190.00;;;;5059192;28;20076;-64
2022/03/13 08:18:55;;;;;;;7.97;4.82;;;17.10;36.00;16.30;101194.00;;;;5057257;28;20045;-64
2022/03/13 08:21:41;;;;;;;5.68;4.45;;;17.20;36.00;16.30;101200.00;;;;5031186;28;20040;-63
2022/03/13 08:24:28;;;;;;;6.82;4.78;;;17.10;36.00;16.30;101212.00;;;;5059835;28;20126;-64
2022/03/13 08:27:14;;;;;;;7.00;4.75;;;17.20;36.10;16.30;101215.00;;;;5061645;28;20036;-64
2022/03/13 08:30:02;;;;;;;7.18;4.68;;;17.20;36.00;16.30;101220.00;;;;5062211;28;20063;-64
2022/03/13 08:32:48;;;;;;;7.75;5.10;;;17.10;35.90;16.30;101215.00;;;;5055215;28;20055;-64
2022/03/13 08:35:34;;;;;;;8.65;5.32;;;17.20;35.80;16.20;101217.00;;;;5048279;28;20059;-64
2022/03/13 08:38:20;;;;;;;6.85;4.70;;;17.10;35.60;16.20;101208.00;;;;5057618;28;20044;-64
2022/03/13 08:41:06;;;;;;;10.27;5.53;;;17.20;35.30;16.20;101205.00;;;;5060217;28;20045;-64
2022/03/13 08:43:52;;;;;;;7.13;5.03;;;17.20;35.50;16.20;101209.00;;;;5057194;28;20132;-64
2022/03/13 08:46:38;;;;;;;9.05;4.75;;;17.20;35.40;16.20;101213.00;;;;5066981;28;20040;-64
2022/03/13 08:49:25;;;;;;;5.72;4.22;;;17.20;35.30;16.20;101218.00;;;;5054454;28;20036;-64
2022/03/13 08:52:11;;;;;;;11.38;5.60;;;17.10;35.30;16.20;101213.00;;;;5061800;28;20041;-64
2022/03/13 08:54:57;;;;;;;6.65;4.95;;;17.10;35.20;16.20;101215.00;;;;5059835;28;20165;-64
2022/03/13 08:57:43;;;;;;;5.60;4.60;;;17.10;35.20;16.20;101206.00;;;;5055392;28;20035;-64
2022/03/13 09:00:30;;;;;;;7.40;4.53;;;17.10;35.10;16.20;101202.00;;;;5058627;28;20157;-64
2022/03/13 09:03:16;;;;;;;8.38;5.07;;;17.10;35.10;16.20;101195.00;;;;5055529;28;20051;-64
2022/03/13 09:06:03;;;;;;;6.38;4.55;;;17.10;35.10;16.20;101201.00;;;;5044486;28;20044;-64
2022/03/13 09:08:49;;;;;;;7.60;4.57;;;17.10;35.10;16.20;101194.00;;;;5056169;28;20059;-64
2022/03/13 09:11:36;;;;;;;6.95;4.13;;;17.10;35.10;16.20;101184.00;;;;5060945;28;20029;-64
2022/03/13 09:14:22;;;;;;;7.50;4.17;;;17.10;35.10;16.20;101190.00;;;;5059823;28;20040;-64
2022/03/13 09:17:08;;;;;;;7.35;4.38;;;17.20;35.20;16.20;101184.00;;;;5051454;28;20036;-64
2022/03/13 09:19:56;;;;;;;6.82;4.18;;;17.20;35.20;16.20;101199.00;;;;5056901;28;20597;-64
2022/03/13 09:22:42;;;;;;;6.57;4.60;;;17.10;35.10;16.20;101199.00;;;;5039279;28;20049;-64
2022/03/13 09:25:28;;;;;;;8.02;5.00;;;17.20;35.20;16.20;101204.00;;;;5056627;28;20064;-64
2022/03/13 09:28:14;;;;;;;5.47;4.35;;;17.20;35.00;16.30;101203.00;;;;5052565;28;20037;-65
2022/03/13 09:31:00;;;;;;;6.60;4.53;;;17.20;35.00;16.30;101208.00;;;;5055499;28;20060;-65
2022/03/13 09:33:47;;;;;;;6.40;4.63;;;17.20;34.90;16.20;101206.00;;;;5052789;28;20036;-64
2022/03/13 09:36:37;;;;;;;6.03;4.53;;;17.10;34.80;16.20;101201.00;;;;5057936;28;20087;-64
2022/03/13 09:39:23;;;;;;;5.53;4.43;;;17.20;34.70;16.20;101201.00;;;;5060026;28;20124;-64
2022/03/13 09:42:09;;;;;;;7.45;4.05;;;17.20;34.60;16.20;101206.00;;;;5055238;28;20036;-64
2022/03/13 09:44:55;;;;;;;6.63;4.63;;;17.10;34.60;16.20;101197.00;;;;5046295;28;20140;-64
2022/03/13 09:47:41;;;;;;;7.03;4.13;;;17.20;34.60;16.30;101194.00;;;;5056613;28;20280;-64
2022/03/13 09:50:28;;;;;;;5.93;4.30;;;17.20;34.50;16.30;101197.00;;;;5042131;28;20509;-66
2022/03/13 09:53:14;;;;;;;5.28;3.90;;;17.10;34.50;16.30;101194.00;;;;5019223;28;20037;-64
2022/03/13 09:56:01;;;;;;;6.15;4.10;;;17.20;34.50;16.30;101189.00;;;;5053812;28;20513;-64
2022/03/13 09:58:48;;;;;;;5.00;4.05;;;17.20;34.60;16.30;101184.00;;;;5056118;28;20405;-64
2022/03/13 10:01:34;;;;;;;8.43;4.57;;;17.20;34.50;16.30;101187.00;;;;5057847;28;20032;-64
2022/03/13 10:04:20;;;;;;;7.80;4.07;;;17.20;34.50;16.30;101190.00;;;;5053475;28;20040;-65
2022/03/13 10:07:11;;;;;;;6.78;4.05;;;17.20;34.50;16.30;101196.00;;;;5054105;28;20387;-64
2022/03/13 10:10:14;;;;;;;5.78;4.25;;;17.20;34.40;16.30;101182.00;;;;5061308;28;20045;-63
2022/03/13 10:13:00;;;;;;;7.80;4.28;;;17.20;34.40;16.30;101183.00;;;;5041592;28;20143;-64
2022/03/13 10:15:48;;;;;;;4.30;3.50;;;17.30;34.60;16.30;101181.00;;;;5055038;28;20677;-64
2022/03/13 10:18:34;;;;;;;6.47;3.92;;;17.20;34.60;16.30;101181.00;;;;5040958;28;20047;-64
2022/03/13 10:21:20;;;;;;;6.95;4.07;;;17.20;34.50;16.30;101181.00;;;;5052236;28;20037;-63
2022/03/13 10:24:10;;;;;;;7.78;4.60;;;17.20;34.60;16.30;101178.00;;;;5055586;28;20048;-63
2022/03/13 10:27:09;;;;;;;13.43;4.82;;;17.20;34.60;16.30;101174.00;;;;5048501;28;20063;-63
2022/03/13 10:29:56;;;;;;;20.60;5.22;;;17.30;34.60;16.30;101164.00;;;;5056893;28;20037;-64
2022/03/13 10:32:42;;;;;;;8.13;4.18;;;17.30;34.20;16.30;101164.00;;;;5041254;28;20041;-64
2022/03/13 10:35:28;;;;;;;8.52;4.50;;;17.30;34.50;16.30;101162.00;;;;5041484;28;20048;-64
2022/03/13 10:38:19;;;;;;;9.13;4.15;;;17.30;34.50;16.30;101157.00;;;;5054683;28;20052;-64
2022/03/13 10:41:08;;;;;;;9.23;4.40;;;17.30;34.40;16.30;101143.00;;;;5053159;28;20102;-63
2022/03/13 10:43:55;;;;;;;8.18;4.55;;;17.30;34.50;16.40;101139.00;;;;5036367;28;20114;-63
2022/03/13 10:46:42;;;;;;;9.18;4.15;;;17.30;35.10;16.40;101134.00;;;;5058905;28;20204;-63
2022/03/13 10:49:45;;;;;;;8.68;4.32;;;17.30;34.40;16.40;101141.00;;;;5062383;28;20036;-63
2022/03/13 10:52:34;;;;;;;10.13;4.40;;;17.40;34.50;16.40;101134.00;;;;5041710;28;20389;-63
2022/03/13 10:55:22;;;;;;;7.15;3.75;;;17.40;34.50;16.40;101135.00;;;;5047402;28;20594;-64
2022/03/13 10:58:09;;;;;;;13.50;4.45;;;17.40;34.50;16.40;101130.00;;;;5046043;28;20043;-63
2022/03/13 11:01:04;;;;;;;8.10;4.95;;;17.40;34.60;16.40;101133.00;;;;5060648;28;20084;-63
2022/03/13 11:03:56;;;;;;;6.00;4.47;;;17.40;34.50;16.40;101131.00;;;;5060696;28;20048;-63
2022/03/13 11:06:43;;;;;;;6.30;4.03;;;17.40;34.50;16.40;101129.00;;;;5041668;28;20088;-63
2022/03/13 11:09:29;;;;;;;7.60;3.90;;;17.40;34.60;16.50;101141.00;;;;5062995;28;20037;-63
2022/03/13 11:12:21;;;;;;;5.00;3.70;;;17.40;34.60;16.50;101139.00;;;;5056958;28;20044;-63
2022/03/13 11:15:09;;;;;;;8.38;4.57;;;17.40;34.60;16.50;101138.00;;;;5044357;28;20134;-63
2022/03/13 11:17:56;;;;;;;8.27;4.13;;;17.50;34.70;16.50;101140.00;;;;5054439;28;20033;-63
2022/03/13 11:20:42;;;;;;;6.70;4.50;;;17.50;34.70;16.50;101145.00;;;;5055949;28;20474;-63
2022/03/13 11:23:30;;;;;;;8.18;4.68;;;17.50;34.60;16.50;101153.00;;;;5035627;28;20052;-63
2022/03/13 11:26:18;;;;;;;6.32;3.97;;;17.50;34.50;16.50;101156.00;;;;5062354;28;20091;-63
2022/03/13 11:29:08;;;;;;;9.60;4.53;;;17.50;34.60;16.50;101149.00;;;;5045364;28;20095;-63
2022/03/13 11:31:57;;;;;;;8.70;5.05;;;17.50;34.60;16.50;101148.00;;;;5060181;28;20044;-63
2022/03/13 11:34:44;;;;;;;6.82;4.93;;;17.50;34.50;16.50;101151.00;;;;5045978;28;20031;-65
2022/03/13 11:37:31;;;;;;;8.13;4.63;;;17.50;34.60;16.50;101133.00;;;;5051238;28;20344;-64
2022/03/13 11:40:19;;;;;;;11.02;4.97;;;17.50;34.50;16.50;101132.00;;;;5059987;28;20037;-67
2022/03/13 11:43:10;;;;;;;5.72;4.28;;;17.50;34.50;16.50;101131.00;;;;5057174;28;20037;-65
2022/03/13 11:46:00;;;;;;;7.82;4.82;;;17.50;34.50;16.50;101142.00;;;;5049778;28;20157;-64
2022/03/13 11:48:46;;;;;;;8.45;4.88;;;17.50;34.50;16.50;101133.00;;;;5052276;28;20043;-66
2022/03/13 11:51:32;;;;;;;7.63;5.18;;;17.50;34.50;16.50;101131.00;;;;5068531;28;20059;-64
2022/03/13 11:54:54;;;;;;;7.30;5.00;;;17.50;34.50;16.50;101137.00;;;;5063973;28;20040;-64
2022/03/13 11:57:50;;;;;;;5.93;4.50;;;17.50;34.50;16.50;101138.00;;;;5061244;28;20032;-64
2022/03/13 12:00:36;;;;;;;10.40;4.88;;;17.50;34.60;16.50;101134.00;;;;5065238;28;20040;-65
2022/03/13 12:03:22;;;;;;;7.50;4.80;;;17.50;34.70;16.50;101126.00;;;;5065447;28;20041;-65
2022/03/13 12:06:09;;;;;;;8.30;4.65;;;17.60;35.40;16.50;101127.00;;;;5071716;28;20400;-65
2022/03/13 12:09:30;;;;;;;8.82;4.93;;;17.50;34.70;16.50;101126.00;;;;5064975;28;20454;-65
2022/03/13 12:12:17;;;;;;;9.43;4.70;;;17.60;34.80;16.50;101125.00;;;;5061593;28;20085;-65
2022/03/13 12:15:05;;;;;;;7.45;4.70;;;17.70;34.70;16.50;101122.00;;;;5050255;28;21754;-65